Main page
Satellite images 15-day forecastsClimateMarine weather Cyclones Lightning AirportsFAQ Newsletter About
Weather : Europe Africa North America South America Asia Australia-Oceania Others
Languages Contact

Birmingham, England

latitude: 52-27N, longitude: 001-44W, elevation: 99 m


METAR: EGBB 241020Z 02007KT 340V080 8000 FEW014 20/16 Q1020
short-TAF: out of date (50100 hours)
long-TAF: EGBB 241010Z 2410/2506 04007KT 7000 BKN013 BECMG 2410/2413 9999 FEW045 PROB30 2500/2506 4000 HZ BKN005

Time: 11:40 (10:40 UTC)

Current weather observation

The report was made 20 minutes ago, at 10:20 UTC  
Wind 07 kt from the North/Northeast, varying between North/Northwest and East
Temperature 20°C
Humidity 78%
Pressure 1020 hPa
Visibility 8000 m
Few clouds at a height of 1400 ft

Change units

Forecast

The report was made 25 minutes ago, at 10:15 UTC  
Forecast valid from 24 at 10 UTC to 25 at 06 UTC
Wind 07 kt from the Northeast
Visibility 7000 m
Broken clouds at a height of 1300 ft
Becoming
from 24 at 10 UTC to 24 at 13 UTC
Visibility 10 km or more
Few clouds at a height of 4500 ft
Probability 30%
from 25 at 00 UTC to 25 at 06 UTC
Visibility 4000 m
Broken clouds at a height of 500 ft
haze
The information on this site is subject to a disclaimer
Weather : Europe Africa North America South America Asia Australia-Oceania Others
Satellite images 15-day forecastsClimateMarine weather Cyclones Lightning AirportsFAQ Languages Contact Newsletter About